Kezdőlap
METAR-TAF:

METAR-TAF

Repülőterek :

Csengtu, Kína

földrajzi szélesség: 30-40N, földrajzi hosszúság: 104-01E, magasság: 508 m

Jelenlegi meteorológiai megfigyelések

A jelentés 42 perccel ezelõtt készült, 21:00 UTC
Szélcsend
Hőmérséklet 9°C
Páratartalom 93%
Légköri nyomás 1021 hPa
Látótávolság 10 km, vagy több
Szakadozott felhőzet 4000 lábon

METAR: ZUUU 232100Z 00000MPS 9999 BKN040 09/08 Q1021 NOSIG

Idő: 05:42 (21:42 UTC)

Előrejelzés

A jelentés 7 órával és 37 perccel ezelõtt készült, 14:05 UTC
Az előrejelzés 23-én 18 óra UTC és 24-én 18 óra UTC között érvényes
Észak-északkeleti szél 6 kt
Látótávolság: 5000 m
Szórványos felhőzet 4000 lábon
Párásság

TAF: ZUUU 231405Z 2318/2418 02003MPS 5000 BR SCT040 TX16/2407Z TN08/2323Z

Meteorológiai megfigyelések és előrejelzések több, mint 4000 repülőtéren (METAR és TAF jelentéseket).

A térképen piros és sárga pontok jelzik az elérhető meteorológiai állomásokat.

Mozgassa az egeret a pont fölött, hogy megjelenjen az állomás neve.

Azután kattintson az időjárási megfigyelések és előrejelzések megtekintéséhez.

A térkép megváltoztatása: kattintson a fekete keresztel jelölt zöld gombra ráközelítéshez, a vonallal jelölt zöld gombra távolításhoz, vagy a zöld nyilakra a szomszédos térképek eléréséhez.


METAR-TAF: